createdAt,value
2023-01-06T00:01:13.274Z,0.70
2023-01-06T00:03:41.734Z,0.87
2023-01-06T00:06:13.980Z,1.83
2023-01-06T00:08:42.394Z,1.33
2023-01-06T00:11:12.213Z,0.67
2023-01-06T00:13:41.254Z,0.80
2023-01-06T00:16:11.261Z,0.70
2023-01-06T00:18:40.111Z,1.40
2023-01-06T00:21:09.341Z,0.73
2023-01-06T00:23:39.993Z,1.77
2023-01-06T00:26:10.287Z,1.30
2023-01-06T00:28:39.016Z,1.60
2023-01-06T00:31:09.196Z,1.07
2023-01-06T00:33:38.085Z,2.87
2023-01-06T00:36:08.352Z,1.23
2023-01-06T00:38:38.728Z,1.20
2023-01-06T00:41:30.190Z,1.57
2023-01-06T00:43:59.370Z,1.83
2023-01-06T00:46:29.632Z,2.70
2023-01-06T00:49:07.345Z,3.53
2023-01-06T00:51:37.786Z,1.37
2023-01-06T00:54:08.596Z,1.37
2023-01-06T00:56:38.700Z,2.00
2023-01-06T00:59:09.863Z,1.83
2023-01-06T01:01:38.564Z,3.00
2023-01-06T01:04:07.523Z,4.90
2023-01-06T01:06:37.548Z,2.40
2023-01-06T01:09:08.407Z,2.70
2023-01-06T01:11:54.356Z,1.33
2023-01-06T01:14:23.138Z,3.10
2023-01-06T01:16:51.635Z,1.47
2023-01-06T01:19:20.549Z,1.43
2023-01-06T01:21:49.249Z,2.40
2023-01-06T01:24:20.948Z,1.40
2023-01-06T01:26:50.873Z,1.87
2023-01-06T01:29:20.493Z,2.03
2023-01-06T01:31:51.069Z,2.10
2023-01-06T01:34:20.037Z,1.23
2023-01-06T01:36:50.070Z,1.20
2023-01-06T01:39:21.764Z,1.33
2023-01-06T01:41:50.699Z,1.00
2023-01-06T01:44:58.212Z,1.43
2023-01-06T01:47:42.089Z,2.40
2023-01-06T01:50:17.698Z,0.43
2023-01-06T01:52:47.997Z,0.87
2023-01-06T01:55:19.832Z,2.03
2023-01-06T01:57:52.040Z,1.00
2023-01-06T02:00:21.914Z,1.40
2023-01-06T02:02:51.550Z,2.00
2023-01-06T02:05:26.341Z,1.30
2023-01-06T02:07:57.509Z,1.40
2023-01-06T02:10:27.367Z,0.93
2023-01-06T02:12:59.223Z,1.20
2023-01-06T02:15:30.006Z,2.23
2023-01-06T02:18:16.004Z,3.07
2023-01-06T02:20:55.536Z,2.90
2023-01-06T02:24:19.598Z,1.83
2023-01-06T02:27:25.122Z,1.30
2023-01-06T02:30:35.749Z,2.03
2023-01-06T02:33:21.100Z,5.33
2023-01-06T02:36:01.599Z,1.07
2023-01-06T02:38:42.316Z,1.50
2023-01-06T02:41:21.285Z,1.20
2023-01-06T02:43:59.642Z,1.50
2023-01-06T02:46:48.024Z,1.37
2023-01-06T02:49:26.638Z,2.80
2023-01-06T02:52:01.154Z,1.00
2023-01-06T02:54:39.392Z,1.33
2023-01-06T02:57:18.309Z,3.70
2023-01-06T02:59:53.701Z,1.20
2023-01-06T03:02:23.941Z,1.37
2023-01-06T03:04:57.795Z,2.23
2023-01-06T03:07:29.538Z,2.07
2023-01-06T03:10:01.849Z,2.47
2023-01-06T03:12:36.779Z,3.10
2023-01-06T03:15:05.843Z,2.03
2023-01-06T03:17:34.377Z,1.20
2023-01-06T03:20:06.696Z,1.40
2023-01-06T03:22:38.971Z,2.50
2023-01-06T03:25:08.922Z,3.03
2023-01-06T03:27:37.861Z,1.50
2023-01-06T03:30:10.040Z,1.63
2023-01-06T03:32:49.758Z,1.60
2023-01-06T03:35:43.041Z,1.70
2023-01-06T03:38:21.438Z,1.57
2023-01-06T03:40:56.477Z,1.60
2023-01-06T03:43:30.517Z,1.10
2023-01-06T03:46:13.332Z,1.60
2023-01-06T03:48:54.428Z,1.33
2023-01-06T03:51:42.030Z,1.90
2023-01-06T03:54:25.537Z,2.90
2023-01-06T03:57:06.272Z,2.50
2023-01-06T03:59:39.592Z,1.97
2023-01-06T04:02:09.561Z,1.30
2023-01-06T04:04:38.942Z,2.03
2023-01-06T04:07:09.053Z,1.27
2023-01-06T04:09:41.053Z,1.80
2023-01-06T04:12:32.760Z,1.60
2023-01-06T04:15:01.169Z,2.50
2023-01-06T04:17:29.488Z,1.57
2023-01-06T04:19:57.859Z,1.10
2023-01-06T04:22:29.289Z,1.40
2023-01-06T04:24:57.835Z,1.40
2023-01-06T04:27:26.248Z,1.20
2023-01-06T04:29:54.641Z,1.73
2023-01-06T04:32:23.696Z,2.33
2023-01-06T04:34:52.947Z,1.90
2023-01-06T04:37:21.571Z,2.50
2023-01-06T04:39:51.656Z,2.10
2023-01-06T04:42:19.972Z,1.63
2023-01-06T04:44:48.293Z,1.00
2023-01-06T04:47:16.748Z,0.87
2023-01-06T04:49:45.096Z,1.43
2023-01-06T04:52:13.452Z,1.33
2023-01-06T04:54:41.750Z,1.43
2023-01-06T04:57:11.549Z,1.20
2023-01-06T04:59:39.981Z,1.10
2023-01-06T05:02:08.417Z,0.90
2023-01-06T05:04:46.920Z,0.70
2023-01-06T05:07:16.070Z,0.97
2023-01-06T05:09:44.458Z,2.60
2023-01-06T05:12:14.277Z,1.90
2023-01-06T05:14:42.649Z,1.30
2023-01-06T05:17:11.074Z,1.87
2023-01-06T05:19:39.344Z,1.47
2023-01-06T05:22:07.748Z,1.30
2023-01-06T05:24:36.029Z,2.03
2023-01-06T05:27:04.876Z,2.10
2023-01-06T05:29:34.732Z,1.50
2023-01-06T05:32:03.443Z,5.53
2023-01-06T05:34:32.086Z,1.57
2023-01-06T05:37:00.464Z,1.93
2023-01-06T05:39:28.839Z,2.60
2023-01-06T05:41:57.186Z,3.80
2023-01-06T05:44:25.505Z,2.87
2023-01-06T05:46:56.308Z,4.17
2023-01-06T05:49:24.766Z,1.80
2023-01-06T05:51:53.216Z,2.80
2023-01-06T05:54:21.546Z,2.13
2023-01-06T05:56:49.941Z,5.93
2023-01-06T05:59:18.256Z,2.87
2023-01-06T06:01:46.610Z,4.10
2023-01-06T06:04:16.652Z,1.53
2023-01-06T06:06:45.077Z,1.93
2023-01-06T06:09:13.343Z,2.33
2023-01-06T06:11:41.714Z,1.87
2023-01-06T06:14:11.021Z,2.57
2023-01-06T06:16:39.435Z,1.67
2023-01-06T06:19:07.885Z,2.58
2023-01-06T06:21:37.718Z,1.40
2023-01-06T06:24:06.674Z,2.93
2023-01-06T06:26:35.050Z,2.20
2023-01-06T06:29:03.458Z,1.97
2023-01-06T06:31:31.827Z,3.27
2023-01-06T06:34:02.263Z,2.10
2023-01-06T06:36:32.024Z,1.70
2023-01-06T06:39:02.019Z,2.30
2023-01-06T06:41:30.409Z,1.37
2023-01-06T06:43:58.780Z,2.50
2023-01-06T06:46:27.121Z,3.33
2023-01-06T06:48:55.452Z,3.10
2023-01-06T06:51:24.590Z,2.17
2023-01-06T06:53:53.069Z,1.23
2023-01-06T06:56:23.116Z,1.67
2023-01-06T06:58:52.057Z,4.33
2023-01-06T07:01:21.898Z,1.30
2023-01-06T07:03:50.523Z,1.77
2023-01-06T07:06:22.557Z,1.83
2023-01-06T07:08:51.848Z,1.83
2023-01-06T07:11:20.887Z,4.30
2023-01-06T07:13:51.003Z,3.13
2023-01-06T07:16:20.089Z,3.13
2023-01-06T07:18:49.164Z,2.40
2023-01-06T07:21:17.543Z,1.40
2023-01-06T07:23:46.087Z,1.97
2023-01-06T07:26:15.876Z,2.63
2023-01-06T07:28:44.417Z,2.07
2023-01-06T07:31:14.228Z,2.33
2023-01-06T07:33:42.596Z,2.07
2023-01-06T07:36:11.235Z,1.40
2023-01-06T07:38:39.591Z,2.67
2023-01-06T07:41:08.025Z,2.40
2023-01-06T07:43:36.436Z,4.07
2023-01-06T07:46:04.968Z,3.03
2023-01-06T07:48:34.886Z,7.37
2023-01-06T07:51:03.446Z,8.03
2023-01-06T07:53:32.584Z,4.97
2023-01-06T07:56:00.959Z,2.93
2023-01-06T07:58:29.363Z,2.67
2023-01-06T08:00:57.729Z,2.40
2023-01-06T08:03:26.172Z,1.63
2023-01-06T08:05:55.939Z,4.87
2023-01-06T08:08:24.504Z,2.40
2023-01-06T08:10:52.987Z,3.70
2023-01-06T08:13:22.339Z,1.90
2023-01-06T08:15:52.168Z,2.07
2023-01-06T08:18:21.747Z,4.33
2023-01-06T08:20:50.118Z,3.77
2023-01-06T08:23:21.853Z,1.20
2023-01-06T08:25:50.527Z,2.93
2023-01-06T08:28:19.532Z,2.63
2023-01-06T08:30:49.192Z,3.00
2023-01-06T08:33:17.646Z,4.00
2023-01-06T08:35:47.697Z,5.83
2023-01-06T08:38:16.273Z,3.40
2023-01-06T08:40:46.103Z,3.07
2023-01-06T08:43:14.432Z,7.53
2023-01-06T08:45:42.966Z,3.83
2023-01-06T08:48:11.442Z,5.63
2023-01-06T08:50:40.175Z,5.20
2023-01-06T08:53:08.698Z,4.97
2023-01-06T08:55:40.065Z,4.90
2023-01-06T08:58:10.765Z,3.50
2023-01-06T09:00:41.890Z,4.37
2023-01-06T09:03:10.830Z,2.20
2023-01-06T09:05:39.195Z,2.97
2023-01-06T09:08:07.555Z,5.77
2023-01-06T09:10:38.517Z,3.93
2023-01-06T09:13:06.965Z,7.17
2023-01-06T09:15:40.644Z,4.03
2023-01-06T09:18:09.866Z,8.73
2023-01-06T09:20:38.733Z,2.60
2023-01-06T09:23:07.117Z,2.90
2023-01-06T09:25:35.461Z,4.03
2023-01-06T09:28:03.884Z,2.63
2023-01-06T09:30:32.188Z,7.07
2023-01-06T09:33:01.981Z,2.87
2023-01-06T09:35:30.401Z,6.03
2023-01-06T09:37:58.772Z,2.93
2023-01-06T09:40:34.567Z,2.43
2023-01-06T09:43:14.882Z,1.93
2023-01-06T09:45:47.645Z,2.23
2023-01-06T09:48:23.167Z,2.70
2023-01-06T09:50:55.501Z,2.43
2023-01-06T09:53:27.835Z,3.47
2023-01-06T09:56:00.704Z,1.47
2023-01-06T09:58:33.812Z,2.03
2023-01-06T10:01:08.212Z,2.37
2023-01-06T10:03:38.274Z,2.50
2023-01-06T10:06:27.185Z,6.93
2023-01-06T10:09:06.183Z,2.07
2023-01-06T10:11:45.639Z,1.37
2023-01-06T10:14:21.828Z,1.90
2023-01-06T10:17:07.335Z,1.57
2023-01-06T10:19:56.705Z,1.47
2023-01-06T10:22:37.204Z,1.20
2023-01-06T10:25:13.752Z,1.67
2023-01-06T10:27:43.765Z,3.40
2023-01-06T10:30:20.144Z,1.40
2023-01-06T10:32:51.152Z,1.00
2023-01-06T10:35:25.517Z,1.23
2023-01-06T10:37:57.463Z,1.97
2023-01-06T10:40:27.781Z,1.33
2023-01-06T10:43:03.515Z,1.20
2023-01-06T10:45:36.149Z,1.00
2023-01-06T10:48:06.966Z,1.00
2023-01-06T10:50:36.875Z,0.70
2023-01-06T10:53:06.387Z,1.20
2023-01-06T10:55:40.621Z,2.70
2023-01-06T10:58:19.736Z,2.10
2023-01-06T11:01:10.156Z,0.50
2023-01-06T11:03:42.780Z,0.40
2023-01-06T11:06:20.065Z,0.40
2023-01-06T11:08:48.831Z,0.30
2023-01-06T11:11:28.680Z,0.50
2023-01-06T11:14:00.471Z,0.57
2023-01-06T11:16:31.602Z,0.30
2023-01-06T11:19:02.645Z,0.53
2023-01-06T11:21:41.808Z,0.70
2023-01-06T11:24:19.462Z,0.57
2023-01-06T11:26:53.433Z,4.00
2023-01-06T11:29:31.540Z,2.23
2023-01-06T11:32:04.892Z,0.70
2023-01-06T11:34:34.331Z,0.73
2023-01-06T11:37:04.137Z,0.77
2023-01-06T11:39:36.058Z,0.57
2023-01-06T11:42:10.510Z,1.17
2023-01-06T11:44:41.597Z,0.50
2023-01-06T11:47:16.518Z,0.73
2023-01-06T11:49:49.789Z,1.37
2023-01-06T11:52:25.067Z,0.90
2023-01-06T11:55:03.980Z,0.50
2023-01-06T11:57:46.296Z,0.47
2023-01-06T12:00:33.053Z,0.90
2023-01-06T12:03:12.591Z,1.00
2023-01-06T12:05:49.048Z,0.90
2023-01-06T12:08:22.119Z,0.93
2023-01-06T12:10:55.309Z,0.60
2023-01-06T12:13:24.825Z,0.60
2023-01-06T12:16:01.408Z,0.77
2023-01-06T12:18:32.932Z,1.30
2023-01-06T12:21:04.051Z,1.87
2023-01-06T12:23:37.040Z,1.67
2023-01-06T12:26:16.923Z,1.20
2023-01-06T12:28:48.654Z,1.70
2023-01-06T12:31:21.738Z,2.07
2023-01-06T12:33:56.120Z,0.60
2023-01-06T12:36:31.223Z,0.80
2023-01-06T12:39:04.999Z,0.70
2023-01-06T12:41:39.390Z,0.97
2023-01-06T12:44:19.407Z,2.07
2023-01-06T12:46:56.894Z,0.73
2023-01-06T12:49:36.827Z,1.00
2023-01-06T12:52:09.686Z,0.67
2023-01-06T12:54:40.250Z,0.87
2023-01-06T12:57:24.517Z,1.37
2023-01-06T13:00:05.433Z,1.73
2023-01-06T13:02:50.080Z,1.40
2023-01-06T13:05:52.894Z,1.57
2023-01-06T13:08:37.963Z,0.93
2023-01-06T13:11:20.490Z,2.37
2023-01-06T13:13:57.373Z,1.10
2023-01-06T13:16:33.356Z,1.00
2023-01-06T13:19:11.216Z,2.67
2023-01-06T13:21:40.991Z,1.50
2023-01-06T13:24:34.951Z,1.03
2023-01-06T13:27:34.919Z,1.00
2023-01-06T13:30:18.271Z,1.33
2023-01-06T13:33:05.015Z,1.20
2023-01-06T13:35:59.925Z,1.50
2023-01-06T13:38:55.353Z,1.80
2023-01-06T13:41:28.419Z,1.20
2023-01-06T13:43:59.922Z,0.90
2023-01-06T13:46:30.921Z,1.37
2023-01-06T13:49:02.713Z,1.10
2023-01-06T13:51:34.931Z,1.43
2023-01-06T13:54:03.458Z,1.67
2023-01-06T13:56:33.883Z,3.43
2023-01-06T13:59:24.817Z,1.23
2023-01-06T14:01:55.018Z,1.30
2023-01-06T14:04:49.159Z,1.20
2023-01-06T14:07:33.123Z,3.77
2023-01-06T14:10:02.693Z,1.67
2023-01-06T14:12:32.356Z,3.77
2023-01-06T14:15:06.280Z,1.23
2023-01-06T14:17:41.502Z,2.20
2023-01-06T14:20:31.971Z,1.97
2023-01-06T14:23:02.968Z,1.57
2023-01-06T14:25:33.610Z,1.63
2023-01-06T14:28:26.773Z,3.27
2023-01-06T14:31:28.209Z,2.50
2023-01-06T14:33:59.802Z,2.80
2023-01-06T14:36:31.827Z,8.33
2023-01-06T14:39:03.669Z,2.53
2023-01-06T14:41:37.678Z,4.83
2023-01-06T14:44:12.913Z,3.60
2023-01-06T14:46:45.541Z,4.57
2023-01-06T14:49:22.408Z,4.63
2023-01-06T14:51:54.378Z,5.37
2023-01-06T14:54:26.796Z,6.80
2023-01-06T14:56:57.248Z,3.93
2023-01-06T14:59:27.284Z,3.97
2023-01-06T15:02:00.123Z,6.73
2023-01-06T15:04:32.345Z,4.70
2023-01-06T15:07:03.734Z,4.07
2023-01-06T15:09:32.188Z,4.83
2023-01-06T15:12:00.536Z,6.50
2023-01-06T15:14:31.577Z,4.70
2023-01-06T15:17:03.614Z,6.23
2023-01-06T15:19:34.297Z,5.97
2023-01-06T15:22:07.908Z,6.50
2023-01-06T15:24:39.624Z,6.90
2023-01-06T15:27:09.710Z,6.77
2023-01-06T15:29:38.175Z,8.83
2023-01-06T15:32:13.153Z,10.00
2023-01-06T15:34:47.136Z,6.17
2023-01-06T15:37:20.297Z,7.53
2023-01-06T15:39:50.512Z,7.43
2023-01-06T15:42:22.999Z,6.87
2023-01-06T15:44:58.727Z,5.73
2023-01-06T15:47:33.792Z,6.57
2023-01-06T15:50:06.958Z,6.30
2023-01-06T15:52:39.903Z,5.90
2023-01-06T15:55:20.424Z,6.90
2023-01-06T15:57:54.697Z,8.13
2023-01-06T16:00:25.243Z,9.27
2023-01-06T16:02:53.885Z,9.10
2023-01-06T16:05:42.497Z,9.83
2023-01-06T16:08:23.391Z,10.10
2023-01-06T16:11:09.811Z,4.80
2023-01-06T16:13:38.405Z,9.17
2023-01-06T16:16:25.441Z,8.03
2023-01-06T16:18:55.500Z,8.73
2023-01-06T16:21:28.295Z,7.30
2023-01-06T16:23:59.352Z,7.17
2023-01-06T16:26:30.822Z,6.17
2023-01-06T16:29:01.758Z,5.20
2023-01-06T16:31:33.826Z,9.13
2023-01-06T16:34:24.858Z,8.07
2023-01-06T16:36:57.201Z,8.40
2023-01-06T16:39:25.771Z,6.40
2023-01-06T16:42:41.150Z,9.87
2023-01-06T16:45:29.491Z,9.43
2023-01-06T16:47:58.129Z,8.50
2023-01-06T16:50:28.137Z,7.80
2023-01-06T16:53:03.642Z,8.20
2023-01-06T16:55:32.315Z,11.47
2023-01-06T16:58:01.933Z,10.83
2023-01-06T17:00:36.353Z,11.57
2023-01-06T17:03:14.733Z,12.73
2023-01-06T17:05:43.618Z,15.93
2023-01-06T17:08:17.669Z,13.33
2023-01-06T17:10:46.477Z,12.60
2023-01-06T17:13:34.125Z,9.20
2023-01-06T17:16:07.759Z,11.20
2023-01-06T17:18:36.110Z,8.33
2023-01-06T17:21:11.904Z,13.00
2023-01-06T17:23:47.364Z,10.63
2023-01-06T17:26:17.959Z,11.43
2023-01-06T17:28:47.305Z,9.47
2023-01-06T17:31:18.022Z,12.27
2023-01-06T17:33:47.609Z,12.60
2023-01-06T17:36:24.156Z,6.80
2023-01-06T17:38:54.045Z,8.93
2023-01-06T17:41:23.010Z,9.23
2023-01-06T17:43:51.369Z,8.33
2023-01-06T17:46:24.589Z,7.17
2023-01-06T17:49:08.954Z,7.27
2023-01-06T17:51:39.180Z,6.10
2023-01-06T17:54:34.035Z,8.37
2023-01-06T17:57:12.990Z,6.27
2023-01-06T17:59:42.697Z,7.57
2023-01-06T18:02:32.666Z,5.77
2023-01-06T18:05:09.471Z,6.80
2023-01-06T18:07:37.819Z,7.07
2023-01-06T18:10:15.472Z,6.37
2023-01-06T18:12:43.967Z,6.10
2023-01-06T18:15:31.097Z,6.80
2023-01-06T18:18:02.019Z,8.93
2023-01-06T18:20:30.866Z,8.60
2023-01-06T18:22:59.161Z,6.63
2023-01-06T18:25:29.032Z,4.90
2023-01-06T18:27:57.419Z,6.50
2023-01-06T18:30:28.110Z,6.43
2023-01-06T18:32:56.654Z,10.73
2023-01-06T18:35:28.819Z,5.83
2023-01-06T18:38:02.493Z,4.63
2023-01-06T18:40:32.751Z,5.23
2023-01-06T18:43:07.411Z,7.67
2023-01-06T18:45:37.428Z,7.90
2023-01-06T18:48:15.982Z,7.23
2023-01-06T18:50:46.484Z,7.40
2023-01-06T18:53:23.576Z,9.70
2023-01-06T18:55:55.348Z,9.20
2023-01-06T18:58:37.402Z,7.03
2023-01-06T19:01:17.027Z,7.33
2023-01-06T19:04:01.112Z,5.27
2023-01-06T19:06:38.124Z,9.33
2023-01-06T19:09:19.015Z,5.53
2023-01-06T19:12:01.414Z,7.10
2023-01-06T19:14:33.923Z,5.43
2023-01-06T19:17:03.620Z,9.23
2023-01-06T19:19:38.260Z,6.17
2023-01-06T19:22:22.953Z,6.60
2023-01-06T19:24:56.715Z,6.90
2023-01-06T19:27:47.701Z,9.17
2023-01-06T19:30:40.160Z,10.27
2023-01-06T19:33:26.932Z,9.30
2023-01-06T19:36:02.306Z,9.20
2023-01-06T19:38:32.443Z,9.73
2023-01-06T19:41:03.365Z,9.47
2023-01-06T19:43:35.353Z,9.00
2023-01-06T19:46:05.080Z,9.83
2023-01-06T19:48:38.753Z,8.40
2023-01-06T19:51:23.900Z,8.00
2023-01-06T19:53:55.799Z,9.57
2023-01-06T19:56:26.388Z,8.40
2023-01-06T19:59:00.758Z,12.60
2023-01-06T20:01:32.900Z,13.93
2023-01-06T20:04:03.229Z,12.17
2023-01-06T20:06:31.715Z,10.00
2023-01-06T20:09:01.052Z,9.73
2023-01-06T20:11:30.796Z,11.40
2023-01-06T20:14:00.846Z,13.77
2023-01-06T20:16:29.796Z,9.00
2023-01-06T20:18:58.570Z,9.47
2023-01-06T20:21:27.203Z,9.20
2023-01-06T20:23:58.754Z,10.97
2023-01-06T20:26:27.450Z,11.20
2023-01-06T20:28:55.895Z,12.27
2023-01-06T20:31:25.832Z,11.87
2023-01-06T20:33:56.211Z,16.47
2023-01-06T20:36:25.011Z,13.10
2023-01-06T20:38:55.346Z,12.33
2023-01-06T20:41:24.091Z,13.37
2023-01-06T20:43:53.094Z,15.27
2023-01-06T20:46:25.811Z,12.03
2023-01-06T20:48:54.243Z,12.30
2023-01-06T20:51:23.192Z,12.87
2023-01-06T20:53:52.499Z,15.97
2023-01-06T20:56:21.420Z,16.33
2023-01-06T20:58:49.928Z,17.17
2023-01-06T21:01:18.508Z,18.83
2023-01-06T21:03:48.523Z,12.93
2023-01-06T21:06:17.728Z,13.80
2023-01-06T21:08:46.897Z,12.40
2023-01-06T21:11:17.869Z,11.33
2023-01-06T21:13:48.342Z,11.87
2023-01-06T21:16:18.463Z,11.67
2023-01-06T21:18:48.547Z,14.53
2023-01-06T21:21:17.936Z,7.50
2023-01-06T21:23:47.280Z,7.30
2023-01-06T21:26:15.907Z,6.27
2023-01-06T21:28:44.449Z,8.90
2023-01-06T21:31:13.574Z,8.07
2023-01-06T21:33:42.233Z,7.20
2023-01-06T21:36:12.470Z,8.83
2023-01-06T21:38:41.040Z,8.83
2023-01-06T21:41:23.403Z,13.97
2023-01-06T21:43:52.533Z,12.73
2023-01-06T21:46:21.209Z,5.90
2023-01-06T21:48:49.981Z,8.20
2023-01-06T21:51:19.988Z,11.20
2023-01-06T21:53:49.030Z,11.00
2023-01-06T21:56:19.736Z,11.53
2023-01-06T21:58:48.662Z,9.13
2023-01-06T22:01:20.291Z,7.87
2023-01-06T22:03:49.108Z,9.30
2023-01-06T22:06:19.711Z,9.00
2023-01-06T22:08:52.182Z,9.67
2023-01-06T22:11:21.130Z,8.60
2023-01-06T22:13:49.777Z,10.17
2023-01-06T22:16:18.230Z,12.40
2023-01-06T22:18:46.797Z,16.70
2023-01-06T22:21:18.612Z,13.93
2023-01-06T22:23:47.469Z,11.63
2023-01-06T22:26:17.544Z,12.00
2023-01-06T22:28:46.169Z,13.27
2023-01-06T22:31:14.917Z,13.47
2023-01-06T22:33:45.246Z,15.30
2023-01-06T22:36:14.798Z,11.10
2023-01-06T22:38:46.352Z,14.57
2023-01-06T22:41:16.642Z,12.33
2023-01-06T22:43:45.725Z,16.33
2023-01-06T22:46:15.446Z,11.87
2023-01-06T22:48:45.723Z,12.73
2023-01-06T22:51:15.591Z,14.23
2023-01-06T22:53:45.395Z,8.47
2023-01-06T22:56:14.317Z,8.97
2023-01-06T22:58:45.255Z,8.73
2023-01-06T23:01:15.278Z,8.73
2023-01-06T23:03:45.486Z,10.13
2023-01-06T23:06:15.925Z,7.60
2023-01-06T23:08:59.114Z,7.53
2023-01-06T23:11:29.268Z,7.77
2023-01-06T23:14:00.199Z,7.00
2023-01-06T23:16:30.258Z,7.97
2023-01-06T23:18:58.977Z,9.53
2023-01-06T23:21:28.172Z,10.97
2023-01-06T23:23:57.739Z,13.63
2023-01-06T23:26:27.549Z,11.67
2023-01-06T23:28:56.965Z,10.90
2023-01-06T23:31:30.059Z,12.87
2023-01-06T23:34:00.363Z,13.87
2023-01-06T23:36:31.123Z,10.30
2023-01-06T23:39:00.784Z,10.83
2023-01-06T23:41:31.398Z,13.57
2023-01-06T23:44:00.380Z,10.00
2023-01-06T23:46:32.046Z,12.97
2023-01-06T23:49:00.883Z,9.40
2023-01-06T23:51:30.809Z,9.93
2023-01-06T23:54:00.118Z,9.87
2023-01-06T23:56:30.248Z,8.10
2023-01-06T23:59:03.867Z,11.47
